Time;durP1;ratioP1;P1;durP2;ratioP2;P2;SDS_P1;SDS_P2;PMS_P1;PMS_P2;Temp;Humidity;BMP_temperature;BMP_pressure;BME280_temperature;BME280_humidity;BME280_pressure;Samples;Min_cycle;Max_cycle;Signal;HPM_P1;HPM_P2
2021/04/05 04:10:46;;;;;;;0.97;0.97;;;7.60;94.80;;;;;;5753631;23;20480;-77
2021/04/05 04:13:16;;;;;;;1.10;1.10;;;7.60;95.50;;;;;;4922751;29;20215;-77
2021/04/05 04:15:47;;;;;;;0.90;0.90;;;7.60;95.80;;;;;;4923460;29;20254;-76
2021/04/05 04:18:16;;;;;;;0.80;0.80;;;7.50;95.70;;;;;;4923092;29;20210;-76
2021/04/05 04:20:44;;;;;;;1.10;1.10;;;7.40;96.20;;;;;;4918938;29;20274;-76
2021/04/05 04:23:12;;;;;;;1.10;1.10;;;7.40;96.40;;;;;;4904303;29;20207;-76
2021/04/05 04:25:40;;;;;;;1.07;1.07;;;7.30;96.40;;;;;;4898628;29;20247;-75
2021/04/05 04:28:08;;;;;;;1.00;1.00;;;7.20;96.80;;;;;;4897910;29;20267;-75
2021/04/05 04:30:36;;;;;;;1.00;1.00;;;7.20;97.20;;;;;;4898108;29;20223;-76
2021/04/05 04:33:05;;;;;;;1.10;1.10;;;7.10;97.60;;;;;;4897937;29;20210;-75
2021/04/05 04:35:33;;;;;;;1.07;1.07;;;7.00;97.60;;;;;;4897717;29;20246;-76
2021/04/05 04:38:01;;;;;;;1.10;1.10;;;6.90;97.80;;;;;;4897812;29;20625;-75
2021/04/05 04:40:30;;;;;;;1.20;1.20;;;6.80;99.90;;;;;;4897661;29;20203;-76
2021/04/05 04:42:59;;;;;;;0.90;0.90;;;6.90;98.00;;;;;;4897684;29;20267;-75
2021/04/05 04:45:27;;;;;;;1.20;1.20;;;6.90;98.30;;;;;;4897721;29;20207;-76
2021/04/05 04:47:56;;;;;;;0.90;0.90;;;6.90;98.20;;;;;;4897750;29;20215;-75
2021/04/05 04:50:24;;;;;;;1.10;1.10;;;6.90;99.90;;;;;;4897538;29;20251;-77
2021/04/05 04:52:51;;;;;;;1.13;1.13;;;6.90;98.00;;;;;;4897704;29;20693;-75
2021/04/05 04:55:20;;;;;;;1.00;1.00;;;6.90;98.50;;;;;;4897526;29;20219;-76
2021/04/05 04:57:47;;;;;;;1.00;1.00;;;6.70;98.50;;;;;;4897652;29;20234;-75
2021/04/05 05:00:15;;;;;;;1.10;1.10;;;6.80;99.90;;;;;;4897351;29;20207;-75
2021/04/05 05:02:44;;;;;;;1.00;1.00;;;6.80;98.80;;;;;;4897428;29;20211;-78
2021/04/05 05:05:14;;;;;;;0.90;0.90;;;6.80;98.30;;;;;;4896044;29;20239;-75
2021/04/05 05:07:42;;;;;;;1.00;1.00;;;6.80;98.60;;;;;;4899696;29;20207;-75
2021/04/05 05:10:11;;;;;;;1.00;1.00;;;7.00;98.20;;;;;;4904273;29;20608;-75
2021/04/05 05:12:38;;;;;;;1.10;1.10;;;;;;;;;;4896740;29;20215;-75
2021/04/05 05:15:08;;;;;;;1.20;1.20;;;6.90;98.20;;;;;;4896355;29;20266;-75
2021/04/05 05:17:38;;;;;;;0.97;0.97;;;6.90;98.50;;;;;;4896296;29;20267;-75
2021/04/05 05:20:07;;;;;;;1.00;1.00;;;7.00;98.60;;;;;;4896523;29;20238;-75
2021/04/05 05:22:37;;;;;;;0.93;0.93;;;7.10;98.70;;;;;;4896551;29;20231;-76
2021/04/05 05:25:05;;;;;;;1.10;1.10;;;7.10;98.40;;;;;;4895540;29;20631;-75
2021/04/05 05:27:36;;;;;;;1.13;1.13;;;7.20;98.20;;;;;;4896283;29;20270;-75
2021/04/05 05:30:06;;;;;;;0.90;0.90;;;7.10;98.50;;;;;;4896338;29;20227;-75
2021/04/05 05:32:34;;;;;;;0.93;0.93;;;7.30;98.40;;;;;;4896039;29;20300;-76
2021/04/05 05:35:01;;;;;;;1.20;1.20;;;7.20;98.40;;;;;;4896131;29;20203;-75
2021/04/05 05:37:30;;;;;;;1.20;1.20;;;7.40;98.30;;;;;;4896242;29;20247;-74
2021/04/05 05:39:57;;;;;;;1.00;1.00;;;7.30;98.20;;;;;;4896235;29;20665;-75
2021/04/05 05:42:44;;;;;;;0.90;0.90;;;7.30;98.30;;;;;;4896078;29;20223;-75
2021/04/05 05:45:18;;;;;;;1.10;1.10;;;7.40;98.30;;;;;;4895872;29;20672;-76
2021/04/05 05:47:52;;;;;;;0.90;0.90;;;7.40;98.30;;;;;;4895876;29;20263;-74
2021/04/05 05:50:25;;;;;;;0.80;0.80;;;7.60;99.90;;;;;;4896100;29;20235;-74
2021/04/05 05:53:05;;;;;;;0.90;0.90;;;7.60;97.40;;;;;;4896025;29;20631;-75
2021/04/05 05:55:52;;;;;;;1.00;1.00;;;7.60;97.60;;;;;;4896039;29;20603;-74
2021/04/05 05:58:25;;;;;;;1.00;1.00;;;7.70;97.40;;;;;;4896108;29;20255;-73
2021/04/05 06:00:57;;;;;;;0.70;0.70;;;7.80;97.20;;;;;;4896040;29;20377;-77
2021/04/05 06:03:32;;;;;;;0.90;0.90;;;7.90;96.90;;;;;;4895937;29;20629;-77
2021/04/05 06:06:13;;;;;;;0.97;0.97;;;8.00;96.40;;;;;;4896211;29;20214;-76
2021/04/05 06:08:49;;;;;;;0.90;0.90;;;8.00;96.70;;;;;;4896013;29;20282;-76
2021/04/05 06:11:23;;;;;;;0.93;0.93;;;8.00;96.20;;;;;;4896248;29;20231;-75
2021/04/05 06:14:00;;;;;;;0.90;0.90;;;8.20;96.30;;;;;;4896139;29;20677;-75
2021/04/05 06:16:47;;;;;;;0.80;0.80;;;8.30;95.50;;;;;;4896164;29;20262;-76
2021/04/05 06:19:31;;;;;;;0.90;0.90;;;8.40;93.70;;;;;;4896025;29;20654;-76
2021/04/05 06:22:07;;;;;;;0.80;0.80;;;8.60;92.50;;;;;;4896001;29;20235;-76
2021/04/05 06:24:45;;;;;;;1.00;1.00;;;8.80;91.00;;;;;;4896170;29;20259;-76
2021/04/05 06:27:17;;;;;;;0.97;0.97;;;9.10;90.60;;;;;;4896380;29;20211;-76
2021/04/05 06:30:01;;;;;;;0.98;0.98;;;9.30;89.00;;;;;;4895760;29;20223;-76
2021/04/05 06:32:39;;;;;;;0.90;0.90;;;9.60;88.70;;;;;;4895740;29;20231;-76
2021/04/05 06:35:18;;;;;;;0.80;0.80;;;9.70;86.80;;;;;;4896283;29;20560;-76
2021/04/05 06:37:47;;;;;;;0.90;0.90;;;9.90;86.00;;;;;;4899334;29;20251;-76
2021/04/05 06:40:18;;;;;;;0.95;0.95;;;10.00;98.20;;;;;;4899417;29;20634;-75
2021/04/05 06:43:15;;;;;;;0.90;0.90;;;10.10;85.10;;;;;;4899202;29;20211;-76
2021/04/05 06:46:00;;;;;;;0.90;0.90;;;10.20;83.70;;;;;;4898873;29;20207;-76
2021/04/05 06:48:58;;;;;;;0.80;0.80;;;10.30;82.20;;;;;;4869246;29;20207;-76
2021/04/05 06:51:41;;;;;;;0.82;0.82;;;10.40;82.70;;;;;;4898922;29;20243;-76
2021/04/05 06:54:29;;;;;;;0.80;0.80;;;10.40;82.80;;;;;;4899269;29;20707;-76
2021/04/05 06:57:07;;;;;;;0.70;0.70;;;10.40;81.50;;;;;;4870831;29;20215;-75
2021/04/05 06:59:45;;;;;;;0.70;0.70;;;10.40;81.20;;;;;;4898998;29;20264;-75
2021/04/05 07:02:46;;;;;;;0.80;0.80;;;10.40;80.80;;;;;;4898989;29;20227;-75
2021/04/05 07:05:35;;;;;;;0.70;0.70;;;10.50;80.60;;;;;;4879842;29;20269;-75
2021/04/05 07:08:12;;;;;;;0.80;0.80;;;10.60;80.60;;;;;;4899159;29;20214;-75
2021/04/05 07:10:46;;;;;;;0.80;0.80;;;10.60;80.00;;;;;;4898743;29;20238;-74
2021/04/05 07:13:25;;;;;;;0.80;0.80;;;10.70;80.00;;;;;;4898747;29;20592;-75
2021/04/05 07:16:00;;;;;;;0.80;0.80;;;10.80;79.00;;;;;;4898222;29;20271;-77
2021/04/05 07:18:39;;;;;;;0.60;0.60;;;10.80;78.30;;;;;;4898468;29;20265;-77
2021/04/05 07:21:23;;;;;;;0.80;0.80;;;10.90;78.10;;;;;;4898724;29;20329;-75
2021/04/05 07:24:14;;;;;;;0.70;0.70;;;11.00;77.80;;;;;;4898625;29;20203;-76
2021/04/05 07:26:46;;;;;;;0.80;0.80;;;11.10;78.10;;;;;;4898321;29;20481;-76
2021/04/05 07:29:22;;;;;;;0.70;0.70;;;11.30;77.60;;;;;;4898463;29;20712;-74
2021/04/05 07:31:56;;;;;;;0.70;0.70;;;11.30;77.90;;;;;;4898642;29;20238;-75
2021/04/05 07:34:48;;;;;;;0.88;0.88;;;11.30;77.50;;;;;;4898714;29;20207;-74
2021/04/05 07:37:27;;;;;;;0.70;0.70;;;11.30;77.00;;;;;;4898145;29;20636;-75
2021/04/05 07:40:05;;;;;;;0.60;0.60;;;11.30;76.90;;;;;;4898234;29;20203;-75
2021/04/05 07:42:41;;;;;;;0.70;0.70;;;11.40;77.10;;;;;;4898250;29;20235;-74
2021/04/05 07:45:15;;;;;;;0.70;0.70;;;11.50;77.00;;;;;;4897627;29;20675;-75
2021/04/05 07:47:51;;;;;;;0.70;0.70;;;11.40;77.10;;;;;;4897045;29;20577;-77
2021/04/05 07:50:27;;;;;;;0.80;0.80;;;11.30;93.50;;;;;;4897776;29;20227;-76
2021/04/05 07:52:58;;;;;;;0.85;0.85;;;11.30;77.40;;;;;;4897796;29;20207;-76
2021/04/05 07:55:26;;;;;;;0.75;0.75;;;11.50;77.70;;;;;;4897712;29;20207;-77
2021/04/05 07:58:03;;;;;;;0.70;0.70;;;11.60;76.60;;;;;;4897798;29;20242;-77
2021/04/05 08:00:36;;;;;;;0.80;0.80;;;11.40;77.30;;;;;;4897485;29;20234;-77
2021/04/05 08:03:08;;;;;;;0.77;0.77;;;11.30;78.30;;;;;;4898039;29;20306;-74
2021/04/05 08:05:58;;;;;;;0.80;0.80;;;11.10;78.40;;;;;;4897391;29;20258;-76
2021/04/05 08:08:48;;;;;;;0.70;0.70;;;11.10;78.50;;;;;;4893867;29;20267;-76
2021/04/05 08:11:26;;;;;;;0.60;0.60;;;11.10;78.20;;;;;;4897328;29;20787;-76
2021/04/05 08:14:06;;;;;;;0.70;0.70;;;11.10;78.50;;;;;;4897432;29;20274;-76
2021/04/05 08:16:44;;;;;;;0.70;0.70;;;11.30;78.60;;;;;;4897256;29;20234;-75
2021/04/05 08:19:16;;;;;;;0.90;0.90;;;11.20;93.70;;;;;;4897432;29;20203;-75
2021/04/05 08:21:50;;;;;;;0.70;0.70;;;11.30;78.40;;;;;;4897300;29;20428;-75
2021/04/05 08:24:26;;;;;;;0.80;0.80;;;11.30;78.60;;;;;;4897433;29;20323;-75
2021/04/05 08:27:00;;;;;;;0.70;0.70;;;11.30;78.60;;;;;;4897506;29;20206;-77
2021/04/05 08:29:37;;;;;;;0.80;0.80;;;11.20;78.80;;;;;;4897060;29;20298;-75
2021/04/05 08:32:16;;;;;;;0.70;0.70;;;11.40;79.40;;;;;;4897129;29;20226;-75
2021/04/05 08:35:08;;;;;;;0.70;0.70;;;11.70;79.80;;;;;;4896926;29;20283;-76
2021/04/05 08:37:46;;;;;;;0.73;0.73;;;11.80;78.10;;;;;;4887683;29;20353;-76
2021/04/05 08:40:21;;;;;;;0.70;0.70;;;11.80;94.40;;;;;;4896746;29;20613;-75
2021/04/05 08:42:54;;;;;;;0.80;0.80;;;11.70;78.80;;;;;;4897053;29;20640;-76
2021/04/05 08:45:23;;;;;;;0.73;0.73;;;11.60;79.40;;;;;;4896848;29;20287;-75
2021/04/05 08:47:58;;;;;;;0.80;0.80;;;11.60;79.80;;;;;;4897107;29;20699;-75
2021/04/05 08:50:28;;;;;;;0.70;0.70;;;11.70;94.80;;;;;;4896799;29;20275;-76
2021/04/05 08:52:58;;;;;;;0.65;0.65;;;11.60;80.00;;;;;;4897128;29;20263;-76
2021/04/05 08:55:28;;;;;;;0.80;0.80;;;11.60;80.70;;;;;;4896716;29;20582;-76
2021/04/05 08:58:00;;;;;;;0.60;0.60;;;11.70;80.40;;;;;;4896891;29;20673;-76
2021/04/05 09:00:30;;;;;;;0.70;0.70;;;11.50;95.10;;;;;;4896671;29;20214;-76
2021/04/05 09:03:03;;;;;;;0.75;0.75;;;11.60;81.00;;;;;;4896772;29;20677;-76
2021/04/05 09:05:33;;;;;;;0.70;0.70;;;11.60;81.70;;;;;;4896594;29;20207;-76
2021/04/05 09:08:05;;;;;;;0.60;0.60;;;11.70;81.40;;;;;;4896613;29;20635;-75
2021/04/05 09:10:34;;;;;;;0.60;0.60;;;11.80;81.00;;;;;;4896861;29;20231;-76
2021/04/05 09:13:07;;;;;;;0.70;0.70;;;11.70;81.00;;;;;;4896712;29;20215;-76
2021/04/05 09:16:11;;;;;;;0.75;0.75;;;11.80;82.10;;;;;;4897467;29;20214;-76
2021/04/05 09:19:00;;;;;;;0.80;0.80;;;11.80;81.40;;;;;;4897009;29;20298;-76
2021/04/05 09:21:51;;;;;;;0.70;0.70;;;11.80;81.80;;;;;;4896154;29;20772;-75
2021/04/05 09:24:48;;;;;;;0.70;0.70;;;11.90;82.60;;;;;;4896705;29;20211;-76
2021/04/05 09:27:32;;;;;;;0.70;0.70;;;11.90;81.70;;;;;;4896254;29;20211;-75
2021/04/05 09:30:27;;;;;;;0.80;0.80;;;11.90;82.00;;;;;;4896089;29;20227;-76
2021/04/05 09:33:14;;;;;;;0.70;0.70;;;11.80;83.10;;;;;;4896471;29;20665;-76
2021/04/05 09:35:59;;;;;;;0.75;0.75;;;11.90;83.00;;;;;;4896036;29;20634;-75
2021/04/05 09:38:42;;;;;;;0.80;0.80;;;12.00;82.60;;;;;;4896392;29;20259;-75
2021/04/05 09:41:51;;;;;;;0.80;0.80;;;11.80;83.40;;;;;;4896211;29;20227;-76
2021/04/05 09:44:54;;;;;;;0.70;0.70;;;11.80;83.50;;;;;;4882169;29;20211;-76
2021/04/05 09:47:36;;;;;;;0.70;0.70;;;12.10;84.70;;;;;;4896294;29;20214;-76
2021/04/05 09:50:23;;;;;;;0.63;0.63;;;11.90;83.60;;;;;;4896120;29;20783;-76
2021/04/05 09:53:17;;;;;;;0.70;0.70;;;11.80;84.70;;;;;;4896026;29;20684;-76
2021/04/05 09:55:47;;;;;;;0.80;0.80;;;11.60;86.20;;;;;;4895853;29;20211;-75
2021/04/05 09:58:20;;;;;;;0.60;0.60;;;11.50;85.80;;;;;;4896598;29;20214;-75
2021/04/05 10:00:50;;;;;;;0.80;0.80;;;11.60;86.10;;;;;;4895944;29;20852;-76
2021/04/05 10:03:18;;;;;;;0.75;0.75;;;11.70;85.90;;;;;;4896050;29;20207;-75
2021/04/05 10:05:47;;;;;;;0.88;0.88;;;11.50;86.30;;;;;;4895941;29;20207;-76
2021/04/05 10:08:21;;;;;;;0.70;0.70;;;11.30;87.00;;;;;;4896580;29;20222;-75
2021/04/05 10:10:50;;;;;;;0.80;0.80;;;11.20;87.50;;;;;;4897697;29;20586;-75
2021/04/05 10:13:19;;;;;;;0.70;0.70;;;11.20;87.30;;;;;;4900024;29;20231;-75
2021/04/05 10:15:50;;;;;;;0.70;0.70;;;11.10;88.00;;;;;;4899497;29;20633;-77
2021/04/05 10:18:19;;;;;;;0.70;0.70;;;10.90;88.40;;;;;;4900186;29;20207;-77
2021/04/05 10:20:48;;;;;;;0.90;0.90;;;10.80;88.60;;;;;;4900509;29;20227;-76
2021/04/05 10:23:19;;;;;;;0.80;0.80;;;10.80;88.90;;;;;;4899593;29;20207;-77
2021/04/05 10:25:51;;;;;;;0.70;0.70;;;11.00;88.30;;;;;;4932774;23;20237;-74
2021/04/05 10:28:19;;;;;;;0.68;0.68;;;11.10;88.60;;;;;;4956390;29;20209;-74
2021/04/05 10:30:53;;;;;;;0.70;0.70;;;11.10;89.30;;;;;;4956558;29;20221;-73
2021/04/05 10:33:28;;;;;;;0.75;0.75;;;11.00;89.00;;;;;;4956474;29;20287;-74
2021/04/05 10:35:59;;;;;;;0.85;0.85;;;10.70;99.90;;;;;;4946939;29;20280;-75
2021/04/05 10:38:29;;;;;;;0.80;0.80;;;10.70;99.90;;;;;;4937289;29;20234;-75
2021/04/05 10:40:56;;;;;;;0.80;0.80;;;10.40;99.90;;;;;;4936917;29;20258;-74
2021/04/05 10:43:27;;;;;;;0.80;0.80;;;10.00;99.90;;;;;;4937564;29;20217;-75
2021/04/05 10:45:58;;;;;;;1.05;1.05;;;9.90;99.90;;;;;;4936542;29;20301;-75
2021/04/05 10:48:37;;;;;;;0.90;0.90;;;9.50;99.90;;;;;;4937137;29;20206;-75
2021/04/05 10:51:09;;;;;;;0.93;0.93;;;9.30;99.90;;;;;;4936652;29;20230;-75
2021/04/05 10:53:42;;;;;;;0.90;0.90;;;9.40;99.90;;;;;;4937166;29;20265;-75
2021/04/05 10:56:11;;;;;;;0.93;0.93;;;9.30;99.90;;;;;;4936591;29;20233;-75
2021/04/05 10:58:46;;;;;;;0.80;0.80;;;9.20;99.90;;;;;;4936834;29;20206;-74
2021/04/05 11:01:14;;;;;;;0.90;0.90;;;8.90;99.90;;;;;;4936766;29;20205;-73
2021/04/05 11:03:45;;;;;;;0.90;0.90;;;8.60;99.90;;;;;;4936644;29;20269;-74
2021/04/05 11:06:16;;;;;;;0.90;0.90;;;8.70;99.90;;;;;;4936340;29;20230;-74
2021/04/05 11:08:47;;;;;;;0.93;0.93;;;8.60;99.90;;;;;;4936767;29;20210;-75
2021/04/05 11:11:16;;;;;;;0.97;0.97;;;8.20;99.90;;;;;;4936351;29;20284;-74
2021/04/05 11:13:47;;;;;;;1.03;1.03;;;8.40;99.90;;;;;;4936554;29;20206;-73
2021/04/05 11:16:17;;;;;;;0.90;0.90;;;8.20;99.90;;;;;;4935838;29;20222;-74
2021/04/05 11:18:49;;;;;;;0.90;0.90;;;8.20;99.90;;;;;;4936548;29;20210;-74
2021/04/05 11:21:19;;;;;;;0.90;0.90;;;8.20;99.90;;;;;;4936281;29;20198;-74
2021/04/05 11:23:49;;;;;;;1.03;1.03;;;8.20;99.90;;;;;;4935714;29;20210;-74
2021/04/05 11:26:23;;;;;;;1.00;1.00;;;8.20;99.90;;;;;;4936507;29;20237;-74
2021/04/05 11:28:54;;;;;;;1.10;1.10;;;8.20;99.90;;;;;;4940181;29;20210;-74
2021/04/05 11:31:23;;;;;;;1.10;1.10;;;8.20;99.90;;;;;;4939410;29;20288;-74
2021/04/05 11:33:53;;;;;;;0.90;0.90;;;8.20;99.90;;;;;;4936435;29;20264;-75
2021/04/05 11:36:21;;;;;;;0.90;0.90;;;8.00;99.90;;;;;;4935902;29;20279;-74
2021/04/05 11:38:52;;;;;;;1.10;1.10;;;7.90;99.90;;;;;;4936083;29;20260;-73
2021/04/05 11:41:27;;;;;;;1.07;1.07;;;7.90;99.90;;;;;;4936258;29;20212;-74
2021/04/05 11:43:57;;;;;;;1.10;1.10;;;7.80;99.90;;;;;;4936541;29;20206;-73
2021/04/05 11:46:29;;;;;;;1.00;1.00;;;7.80;99.90;;;;;;4936077;29;20285;-74
2021/04/05 11:49:05;;;;;;;1.10;1.10;;;7.50;99.90;;;;;;4937054;29;20206;-72
2021/04/05 11:51:39;;;;;;;1.10;1.10;;;7.30;99.90;;;;;;4936693;29;20281;-73
2021/04/05 11:54:12;;;;;;;0.90;0.90;;;7.20;99.90;;;;;;4936474;29;20269;-73
2021/04/05 11:56:45;;;;;;;1.00;1.00;;;7.30;99.90;;;;;;4935568;29;20226;-74
2021/04/05 11:59:19;;;;;;;1.10;1.10;;;7.40;99.90;;;;;;4935688;29;20210;-75
2021/04/05 12:01:55;;;;;;;1.13;1.13;;;7.50;99.90;;;;;;4935524;29;20213;-74
2021/04/05 12:04:26;;;;;;;0.90;0.90;;;7.40;99.90;;;;;;4935874;29;20575;-74
2021/04/05 12:06:59;;;;;;;1.00;1.00;;;7.50;99.90;;;;;;4935410;29;20238;-75
2021/04/05 12:09:32;;;;;;;1.03;1.03;;;7.40;99.90;;;;;;4935605;29;20788;-75
2021/04/05 12:12:03;;;;;;;0.90;0.90;;;7.40;99.90;;;;;;4935395;29;20209;-74
2021/04/05 12:14:31;;;;;;;0.90;0.90;;;7.30;99.90;;;;;;4935392;29;20568;-74
2021/04/05 12:17:00;;;;;;;1.00;1.00;;;7.20;99.90;;;;;;4935305;29;20237;-74
2021/04/05 12:19:30;;;;;;;1.30;1.30;;;6.60;99.90;;;;;;4935575;29;20213;-76
2021/04/05 12:21:57;;;;;;;1.30;1.30;;;5.40;99.90;;;;;;4935729;29;20213;-75
2021/04/05 12:24:28;;;;;;;1.40;1.40;;;4.70;99.90;;;;;;4935406;29;20210;-75
2021/04/05 12:26:58;;;;;;;1.33;1.33;;;4.30;99.90;;;;;;4934884;29;20237;-74
2021/04/05 12:29:26;;;;;;;1.33;1.33;;;4.10;99.90;;;;;;4935323;29;20265;-75
2021/04/05 12:31:55;;;;;;;1.60;1.60;;;3.90;99.90;;;;;;4935392;29;20281;-74
2021/04/05 12:34:28;;;;;;;1.43;1.43;;;3.90;99.90;;;;;;4935469;29;20206;-75
2021/04/05 12:36:55;;;;;;;1.20;1.20;;;3.90;99.90;;;;;;4935155;29;20649;-76
2021/04/05 12:39:30;;;;;;;1.43;1.43;;;;;;;;;;4935065;29;20261;-75
2021/04/05 12:41:59;;;;;;;1.30;1.30;;;3.90;99.90;;;;;;4935461;29;20190;-76
2021/04/05 12:44:27;;;;;;;1.20;1.20;;;;;;;;;;4935216;29;20261;-75
2021/04/05 12:46:56;;;;;;;1.20;1.20;;;3.80;99.90;;;;;;4934702;29;20281;-75
2021/04/05 12:49:28;;;;;;;1.27;1.27;;;4.00;99.90;;;;;;4934744;29;20571;-75
2021/04/05 12:51:57;;;;;;;1.33;1.33;;;4.30;99.90;;;;;;4934740;29;20210;-76
2021/04/05 12:54:26;;;;;;;1.33;1.33;;;4.00;99.90;;;;;;4934571;29;20286;-76
2021/04/05 12:56:56;;;;;;;1.30;1.30;;;4.00;99.90;;;;;;4934372;29;20222;-76
2021/04/05 12:59:27;;;;;;;1.20;1.20;;;4.10;99.90;;;;;;4934794;29;20214;-75
2021/04/05 13:02:03;;;;;;;1.30;1.30;;;4.10;99.90;;;;;;4934844;29;20276;-75
2021/04/05 13:04:32;;;;;;;1.20;1.20;;;4.00;99.90;;;;;;4934523;29;20260;-75
2021/04/05 13:07:04;;;;;;;1.80;1.80;;;4.20;99.90;;;;;;4934409;29;20322;-75
2021/04/05 13:09:37;;;;;;;1.23;1.23;;;4.10;99.90;;;;;;4934549;29;20210;-75
2021/04/05 13:12:09;;;;;;;1.53;1.53;;;4.10;99.90;;;;;;4934283;29;20210;-75
2021/04/05 13:14:46;;;;;;;1.40;1.40;;;4.20;99.90;;;;;;4934551;29;20206;-75
2021/04/05 13:17:22;;;;;;;1.20;1.20;;;4.40;99.90;;;;;;4934348;29;20683;-75
2021/04/05 13:19:52;;;;;;;1.30;1.30;;;4.30;99.90;;;;;;4934560;29;20213;-75
2021/04/05 13:22:24;;;;;;;1.40;1.40;;;4.50;99.90;;;;;;4934179;29;20667;-73
2021/04/05 13:24:57;;;;;;;1.30;1.30;;;4.50;99.90;;;;;;4934506;29;20213;-74
2021/04/05 13:27:26;;;;;;;1.40;1.40;;;4.40;99.90;;;;;;4934623;29;20221;-74
2021/04/05 13:29:56;;;;;;;1.40;1.40;;;4.70;99.90;;;;;;4934213;29;20281;-73
2021/04/05 13:32:26;;;;;;;1.00;1.00;;;4.70;99.90;;;;;;4934314;29;20206;-75
2021/04/05 13:34:59;;;;;;;1.10;1.10;;;4.90;99.90;;;;;;4934142;29;20616;-74
2021/04/05 13:37:27;;;;;;;1.60;1.60;;;4.80;99.90;;;;;;4934240;29;20237;-75
2021/04/05 13:39:54;;;;;;;1.23;1.23;;;4.70;99.90;;;;;;4934291;29;20343;-74
2021/04/05 13:42:24;;;;;;;1.23;1.23;;;4.90;99.90;;;;;;4934294;29;20202;-74
2021/04/05 13:44:57;;;;;;;1.10;1.10;;;4.90;99.90;;;;;;4933502;29;20210;-74
2021/04/05 13:47:26;;;;;;;1.23;1.23;;;5.00;99.90;;;;;;4934120;29;20269;-75
2021/04/05 13:49:57;;;;;;;1.33;1.33;;;5.00;99.90;;;;;;4934322;29;20703;-75
2021/04/05 13:52:26;;;;;;;1.17;1.17;;;4.90;99.90;;;;;;4934142;29;20237;-74
2021/04/05 13:54:58;;;;;;;1.17;1.17;;;4.90;99.90;;;;;;4933989;29;20255;-75
2021/04/05 13:57:32;;;;;;;1.10;1.10;;;4.70;99.90;;;;;;4934489;29;20209;-75
2021/04/05 14:00:04;;;;;;;1.10;1.10;;;;;;;;;;4934372;29;20556;-73
2021/04/05 14:02:33;;;;;;;1.40;1.40;;;4.90;99.90;;;;;;4933993;29;20210;-74
2021/04/05 14:05:03;;;;;;;1.20;1.20;;;4.80;99.90;;;;;;4933426;29;20214;-74
2021/04/05 14:07:35;;;;;;;1.40;1.40;;;4.90;99.90;;;;;;4933993;29;20206;-75
2021/04/05 14:10:05;;;;;;;1.20;1.20;;;5.10;99.90;;;;;;4934015;29;20423;-75
2021/04/05 14:12:35;;;;;;;1.10;1.10;;;5.10;99.90;;;;;;4933950;29;20214;-74
2021/04/05 14:15:05;;;;;;;1.20;1.20;;;5.10;99.90;;;;;;4933843;29;20210;-74
2021/04/05 14:17:36;;;;;;;1.30;1.30;;;6.00;99.90;;;;;;4934026;29;20214;-74
2021/04/05 14:20:09;;;;;;;1.30;1.30;;;5.00;99.90;;;;;;4934568;29;20202;-75
2021/04/05 14:22:40;;;;;;;1.10;1.10;;;5.00;99.90;;;;;;4934093;29;20213;-73
2021/04/05 14:25:19;;;;;;;1.10;1.10;;;5.30;99.90;;;;;;4933134;29;20671;-73
2021/04/05 14:27:53;;;;;;;1.40;1.40;;;4.10;99.90;;;;;;4933371;29;20683;-75
2021/04/05 14:30:28;;;;;;;1.10;1.10;;;5.10;99.90;;;;;;4933789;29;20214;-74
2021/04/05 14:32:57;;;;;;;1.20;1.20;;;4.60;99.90;;;;;;4933680;29;20213;-74
2021/04/05 14:35:29;;;;;;;1.47;1.47;;;4.50;99.90;;;;;;4933146;29;20703;-74
2021/04/05 14:38:02;;;;;;;1.30;1.30;;;;;;;;;;4933696;29;20218;-74
2021/04/05 14:40:34;;;;;;;1.27;1.27;;;3.70;99.90;;;;;;4933774;29;20214;-74
2021/04/05 14:43:06;;;;;;;1.50;1.50;;;3.90;99.90;;;;;;4933503;29;20667;-74
2021/04/05 14:45:36;;;;;;;1.40;1.40;;;4.30;99.90;;;;;;4933543;29;20246;-74
2021/04/05 14:48:06;;;;;;;1.37;1.37;;;3.70;99.90;;;;;;4933512;29;20218;-74
2021/04/05 14:50:37;;;;;;;1.67;1.67;;;3.90;99.90;;;;;;4933236;29;20722;-74
2021/04/05 14:53:08;;;;;;;1.50;1.50;;;3.70;99.90;;;;;;4933408;29;20277;-74
2021/04/05 14:55:38;;;;;;;1.17;1.17;;;3.90;99.90;;;;;;4933455;29;20226;-74
2021/04/05 14:58:14;;;;;;;1.30;1.30;;;4.00;99.90;;;;;;4936701;29;20202;-75
2021/04/05 15:00:43;;;;;;;1.50;1.50;;;4.00;99.90;;;;;;4936850;29;20662;-74
2021/04/05 15:03:13;;;;;;;1.20;1.20;;;4.00;99.90;;;;;;4936634;29;20209;-75
2021/04/05 15:05:42;;;;;;;1.67;1.67;;;3.20;99.90;;;;;;4936448;29;20238;-74
2021/04/05 15:08:10;;;;;;;1.50;1.50;;;;;;;;;;4936571;29;20610;-74
2021/04/05 15:10:39;;;;;;;1.37;1.37;;;2.60;99.90;;;;;;4936625;29;20702;-74
2021/04/05 15:13:09;;;;;;;1.70;1.70;;;2.50;99.90;;;;;;4936783;29;20206;-74
2021/04/05 15:15:39;;;;;;;1.53;1.53;;;2.40;99.90;;;;;;4936378;29;20277;-74
2021/04/05 15:18:11;;;;;;;1.70;1.70;;;2.20;99.90;;;;;;4936760;29;20267;-74
2021/04/05 15:20:40;;;;;;;1.30;1.30;;;2.30;99.90;;;;;;4936612;29;20656;-74
2021/04/05 15:23:08;;;;;;;1.83;1.83;;;2.10;99.90;;;;;;4936714;29;20205;-75
2021/04/05 15:25:39;;;;;;;1.50;1.50;;;1.90;99.90;;;;;;4936060;29;20608;-75
2021/04/05 15:28:09;;;;;;;1.80;1.80;;;1.80;99.90;;;;;;4936459;29;20213;-75
2021/04/05 15:30:42;;;;;;;1.33;1.33;;;1.60;99.90;;;;;;4936263;29;20237;-75
2021/04/05 15:33:11;;;;;;;1.63;1.63;;;1.60;99.90;;;;;;4936342;29;20205;-75
2021/04/05 15:35:43;;;;;;;1.43;1.43;;;1.60;99.90;;;;;;4935910;29;20277;-76
2021/04/05 15:38:11;;;;;;;1.60;1.60;;;1.50;99.90;;;;;;4936520;29;20210;-76
2021/04/05 15:40:42;;;;;;;1.80;1.80;;;1.60;99.90;;;;;;4936156;29;20210;-75
2021/04/05 15:43:18;;;;;;;1.40;1.40;;;1.50;99.90;;;;;;4936151;29;20220;-75
2021/04/05 15:45:54;;;;;;;1.50;1.50;;;1.60;99.90;;;;;;4935474;29;20757;-75
2021/04/05 15:48:30;;;;;;;1.53;1.53;;;1.90;99.90;;;;;;4936071;29;20209;-74
2021/04/05 15:51:20;;;;;;;1.80;1.80;;;1.80;99.90;;;;;;4935607;29;20222;-75
2021/04/05 15:53:48;;;;;;;1.60;1.60;;;1.80;99.90;;;;;;4935643;29;20626;-75
2021/04/05 15:56:22;;;;;;;1.60;1.60;;;1.90;99.90;;;;;;4935867;29;20229;-74
2021/04/05 15:58:53;;;;;;;1.40;1.40;;;2.40;99.90;;;;;;4935681;29;20265;-75
2021/04/05 16:01:29;;;;;;;1.53;1.53;;;2.40;99.90;;;;;;4935769;29;20566;-75
2021/04/05 16:04:05;;;;;;;1.20;1.20;;;2.30;99.90;;;;;;4935651;29;20206;-75
2021/04/05 16:06:36;;;;;;;1.47;1.47;;;2.80;99.90;;;;;;4935531;29;20226;-74
2021/04/05 16:09:09;;;;;;;1.37;1.37;;;2.60;99.90;;;;;;4935032;29;20241;-75
2021/04/05 16:11:47;;;;;;;1.30;1.30;;;2.40;99.90;;;;;;4935951;29;20683;-74
2021/04/05 16:14:18;;;;;;;1.57;1.57;;;2.40;99.90;;;;;;4935336;29;20233;-74
2021/04/05 16:16:48;;;;;;;1.37;1.37;;;2.40;99.90;;;;;;4935275;29;20735;-74
2021/04/05 16:19:22;;;;;;;1.83;1.83;;;2.40;99.90;;;;;;4935451;29;20710;-74
2021/04/05 16:21:52;;;;;;;1.60;1.60;;;2.50;99.90;;;;;;4935585;29;20209;-74
2021/04/05 16:24:26;;;;;;;1.60;1.60;;;2.60;99.90;;;;;;4935542;29;20202;-74
2021/04/05 16:26:58;;;;;;;1.63;1.63;;;2.60;99.90;;;;;;4948784;23;20293;-74
2021/04/05 16:29:29;;;;;;;1.20;1.20;;;2.50;99.90;;;;;;4935283;29;20730;-74
2021/04/05 16:31:59;;;;;;;1.60;1.60;;;2.50;99.90;;;;;;4935252;29;20229;-74
2021/04/05 16:34:31;;;;;;;1.60;1.60;;;2.40;99.90;;;;;;4935165;29;20214;-74
2021/04/05 16:37:03;;;;;;;1.40;1.40;;;2.50;99.90;;;;;;4919695;29;20652;-74
2021/04/05 16:39:33;;;;;;;1.40;1.40;;;2.40;99.90;;;;;;4916271;29;20274;-77
2021/04/05 16:42:05;;;;;;;1.50;1.50;;;2.40;99.90;;;;;;4916129;29;20206;-74
2021/04/05 16:44:37;;;;;;;1.40;1.40;;;2.40;99.90;;;;;;4915860;29;20254;-74
2021/04/05 16:47:08;;;;;;;1.50;1.50;;;2.40;99.90;;;;;;4915785;29;20277;-74
2021/04/05 16:49:37;;;;;;;1.33;1.33;;;2.40;99.90;;;;;;4915705;29;20262;-74
2021/04/05 16:52:07;;;;;;;1.50;1.50;;;2.40;99.90;;;;;;4915704;29;20261;-74
2021/04/05 16:54:39;;;;;;;1.73;1.73;;;2.50;99.90;;;;;;4915744;29;20672;-76
2021/04/05 16:57:08;;;;;;;1.40;1.40;;;2.40;99.90;;;;;;4915656;29;20282;-74
2021/04/05 16:59:38;;;;;;;1.60;1.60;;;2.40;99.90;;;;;;4915787;29;20632;-76
2021/04/05 17:02:08;;;;;;;1.43;1.43;;;2.40;99.90;;;;;;4915666;29;20274;-77
2021/04/05 17:04:39;;;;;;;1.30;1.30;;;2.30;99.90;;;;;;4915630;29;20207;-74
2021/04/05 17:07:10;;;;;;;1.70;1.70;;;2.40;99.90;;;;;;4915590;29;20290;-74
2021/04/05 17:09:41;;;;;;;1.70;1.70;;;2.50;99.90;;;;;;4915548;29;20258;-75
2021/04/05 17:12:13;;;;;;;1.70;1.70;;;2.30;99.90;;;;;;4915455;29;20231;-75
2021/04/05 17:14:59;;;;;;;1.60;1.60;;;2.40;99.90;;;;;;4915364;29;20246;-74
2021/04/05 17:17:30;;;;;;;1.50;1.50;;;2.30;99.90;;;;;;4915124;29;20672;-75
2021/04/05 17:20:02;;;;;;;1.40;1.40;;;2.40;99.90;;;;;;4914588;29;20214;-75
2021/04/05 17:22:34;;;;;;;1.43;1.43;;;2.30;99.90;;;;;;4916021;29;20207;-75
2021/04/05 17:25:11;;;;;;;1.43;1.43;;;2.30;99.90;;;;;;4914787;29;20210;-75
2021/04/05 17:27:49;;;;;;;1.53;1.53;;;2.30;99.90;;;;;;4915591;29;20281;-74
2021/04/05 17:30:30;;;;;;;1.50;1.50;;;2.40;99.90;;;;;;4915082;29;20211;-75
2021/04/05 17:33:04;;;;;;;1.40;1.40;;;2.30;99.90;;;;;;4915266;29;20211;-75
2021/04/05 17:35:33;;;;;;;1.50;1.50;;;2.30;99.90;;;;;;4914840;29;20230;-75
2021/04/05 17:38:05;;;;;;;1.47;1.47;;;2.30;99.90;;;;;;4915191;29;20266;-75